ADDS METAR Data

Data at: 0745 UTC 24 Oct 2017

METAR for:CYCX (Gagetown (MIL), NB, CN)
Text:CYCX 240720Z 00000KT 1SM -DZ BR OVC003 13/12 A3019 RMK SF8 DA-180FT VIS VRB 3/4-1 1/4 SLP225
Temperature: 13.0°C ( 55°F)
Dewpoint: 12.0°C ( 54°F) [RH = 94%]
Pressure (altimeter):30.19 inches Hg (1022.4 mb) [Sea level pressure: 1022.5 mb]
Winds:calm
Visibility: 1.00 sm ( 1.61 km)
Ceiling:300 feet AGL
Clouds: overcast cloud deck at 300 feet AGL
Weather:-DZ BR (light drizzle, mist)